Nearby METAR Reports

 

KLOT - Romeoville/Chi, Illinois, USA
Distance from station: N 3mi, 5km
Updated: Fri, 23-Jul-2021 8:15pm CDT
Clear
Clear
 Wind from SW
Wind: SW 7 mph , 11 km/h
Temperature: 81°F , 27°C
Heat Index: 85°F , 29°C
Dew Point: 72°F , 22°C
Humidity: 74%
Barometer: 30.01 inHg , 1016.3 hPa
Clouds: Clear
Visibility: 10 miles , 16 km
2021/07/24 01:15 KLOT 240115Z AUTO 22006KT 10SM CLR 27/22 A3001 RMK AO2 T02700220
KJOT - Joliet, Illinois, USA
Distance from station: WSW 5mi, 7km
Updated: Fri, 23-Jul-2021 8:15pm CDT
Clear
Clear
 Wind from SSW
Wind: SSW 3 mph , 6 km/h
Temperature: 82°F , 28°C
Heat Index: 87°F , 31°C
Dew Point: 73°F , 23°C
Humidity: 74%
Barometer: 30.01 inHg , 1016.3 hPa
Clouds: Clear
Visibility: 10 miles , 16 km
2021/07/24 01:15 KJOT 240115Z AUTO 21003KT 10SM CLR 28/23 A3001 RMK AO2 T02790230
 
KC09 - Morris-Washburn, Illinois, USA
Distance from station: WSW 18mi, 29km
Updated: Fri, 23-Jul-2021 8:15pm CDT
Clear
Clear
 Wind from SW
Wind: SW 5 mph , 7 km/h
Temperature: 81°F , 27°C
Heat Index: 86°F , 30°C
Dew Point: 73°F , 23°C
Humidity: 79%
Barometer: 30.00 inHg , 1015.9 hPa
Clouds: Clear
Visibility: 7 miles , 11 km
2021/07/24 01:15 KC09 240115Z AUTO 22004KT 7SM CLR 27/23 A3000 RMK AO2 T02650226
KARR - Chicago/Aurora, Illinois, USA
Distance from station: NW 24mi, 39km
Updated: Fri, 23-Jul-2021 7:52pm CDT
Clear
Clear
 Wind from S
Wind: S 6 mph , 9 km/h
Temperature: 81°F , 27°C
Heat Index: 85°F , 29°C
Dew Point: 72°F , 22°C
Humidity: 74%
Barometer: 30.00 inHg , 1015.9 hPa
Clouds: Clear
Visibility: 10 miles , 16 km
2021/07/24 00:52 KARR 240052Z 19005KT 10SM CLR 27/22 A3000 RMK AO2 SLP155 T02720222
 
KMDW - Chicago, Illinois, USA
Distance from station: NE 25mi, 39km
Updated: Fri, 23-Jul-2021 7:53pm CDT
Few Clouds
Few Clouds
 Wind from SW
Wind: SW 10 mph , 17 km/h
Temperature: 84°F , 29°C
Heat Index: 86°F , 30°C
Dew Point: 66°F , 19°C
Humidity: 55%
Barometer: 30.00 inHg , 1015.9 hPa
Clouds: Few Clouds
Visibility: 10 miles , 16 km
Cloud details: Few Clouds 4500 ft
Few Clouds 8000 ft
2021/07/24 00:53 KMDW 240053Z 22009KT 10SM FEW045 FEW080 29/19 A3000 RMK AO2 SLP146 T02940194
KDPA - Chicago/Dupage, Illinois, USA
Distance from station: NNW 26mi, 42km
Updated: Fri, 23-Jul-2021 7:52pm CDT
Clear
Clear
 Wind from SSW
Wind: SSW 8 mph , 13 km/h
Temperature: 82°F , 28°C
Heat Index: 86°F , 30°C
Dew Point: 70°F , 21°C
Humidity: 66%
Barometer: 30.00 inHg , 1015.9 hPa
Clouds: Clear
Visibility: 7 miles , 11 km
2021/07/24 00:52 KDPA 240052Z 21007KT 7SM CLR 28/21 A3000 RMK AO2 SLP152 T02780211
 
KIGQ - Chicago/Lansing, Illinois, USA
Distance from station: E 30mi, 48km
Updated: Fri, 23-Jul-2021 8:15pm CDT
Clear
Clear
 Wind from SW
Wind: SW 8 mph , 13 km/h
Temperature: 82°F , 28°C
Heat Index: 86°F , 30°C
Dew Point: 70°F , 21°C
Humidity: 66%
Barometer: 30.02 inHg , 1016.6 hPa
Clouds: Clear
Visibility: 10 miles , 16 km
2021/07/24 01:15 KIGQ 240115Z AUTO 23007KT 10SM CLR 28/21 A3002 RMK AO2 T02760205
KORD - Chicago O'hare, Illinois, USA
Distance from station: NNE 31mi, 50km
Updated: Fri, 23-Jul-2021 7:51pm CDT
Few Clouds
Few Clouds
 Wind from SSW
Wind: SSW 8 mph , 13 km/h
Temperature: 84°F , 29°C
Heat Index: 88°F , 31°C
Dew Point: 70°F , 21°C
Humidity: 62%
Barometer: 29.99 inHg , 1015.6 hPa
Clouds: Few Clouds
Visibility: 8 miles , 13 km
Cloud details: Few Clouds 4000 ft
2021/07/24 00:51 KORD 240051Z 21007KT 8SM FEW040 29/21 A2999 RMK AO2 SLP151 T02940206 $
 
KGYY - Gary Regional, Indiana, USA
Distance from station: E 36mi, 58km
Updated: Fri, 23-Jul-2021 7:45pm CDT
Partly cloudy
Partly cloudy
 Wind from SW
Wind: SW 12 mph , 19 km/h
Temperature: 84°F , 29°C
Heat Index: 88°F , 31°C
Dew Point: 70°F , 21°C
Humidity: 62%
Barometer: 30.02 inHg , 1016.6 hPa
Clouds: Partly cloudy
Visibility: 10 miles , 16 km
Cloud details: Partly cloudy 10000 ft
2021/07/24 00:45 KGYY 240045Z 22010KT 10SM SCT100 29/21 A3002
KIKK - Kankakee, Illinois, USA
Distance from station: SSE 36mi, 58km
Updated: Fri, 23-Jul-2021 8:15pm CDT
Clear
Clear
 Wind from SW
Wind: SW 5 mph , 7 km/h
Temperature: 81°F , 27°C
Heat Index: 86°F , 30°C
Dew Point: 73°F , 23°C
Humidity: 79%
Barometer: 30.04 inHg , 1017.3 hPa
Clouds: Clear
Visibility: 7 miles , 11 km
2021/07/24 01:15 KIKK 240115Z AUTO 22004KT 7SM CLR 27/23 A3004 RMK AO2 PWINO
 
KDKB - De Kalb, Illinois, USA
Distance from station: NW 40mi, 65km
Updated: Fri, 23-Jul-2021 8:15pm CDT
Clear
Clear
 Wind from SSW
Wind: SSW 5 mph , 7 km/h
Temperature: 77°F , 25°C
Dew Point: 72°F , 22°C
Humidity: 83%
Barometer: 30.03 inHg , 1016.9 hPa
Clouds: Clear
Visibility: 7 miles , 11 km
2021/07/24 01:15 KDKB 240115Z AUTO 20004KT 7SM CLR 25/22 A3003 RMK AO2 T02510221
KPWK - Palwaukee, Illinois, USA
Distance from station: NNE 41mi, 65km
Updated: Fri, 23-Jul-2021 7:52pm CDT
Few Clouds
Few Clouds
 Wind from SE
Wind: SE 6 mph , 9 km/h
Temperature: 82°F , 28°C
Heat Index: 86°F , 30°C
Dew Point: 72°F , 22°C
Humidity: 70%
Barometer: 30.00 inHg , 1015.9 hPa
Clouds: Few Clouds
Visibility: 7 miles , 11 km
Cloud details: Few Clouds 5500 ft
2021/07/24 00:52 KPWK 240052Z 13005KT 7SM FEW055 28/22 A3000 RMK AO2 SLP155 T02780222